Soaring Guidance
Issued by NWS Reno, NV

Home | Current Version | Previous Version | Text Only | Print | Product List | Glossary On
Versions: 1 2 3 4 5 6 7 8
000
UXUS97 KREV 271353
SRGREV

SOARING FORECAST
NATIONAL WEATHER SERVICE - RENO NV
700 AM PDT TUE JUN 27 2017

THIS SOARING FORECAST IS FOR THE EASTERN SIERRA AND WESTERN NEVADA
WITH SPECIFIC INDICES FOR THE GREATER RENO AREA.

THIS FORECAST IS PREPARED DAILY BY 700 AM AND IS NOT UPDATED.

FOR CURRENT FLIGHT CONDITIONS...FORECASTS...AND ADVISORIES...ACCESS
YOUR LOCAL BRIEFING OUTLET OR FLIGHT SERVICE STATION.

*******************************************************************
FORECASTED LOCAL INDICES FOR RENO:        TODAY     YESTERDAY
FORECASTED MAX TEMP AT RENO (DEG F).....     90          94
FORECASTED TRIGGER TEMPERATURE (DEG F)..     81          81
   EXCEEDED YESTERDAY BY 955 AM PDT
FORECASTED MAXIMUM ALTITUDE (FT MSL)....  17600       17600
FORECASTED SOARING INDEX (FPM)..........   1158        1158
FORECASTED K-INDEX.........VALID 18Z....      8          14
FORECASTED K-INDEX.........VALID 00Z....      6          11
FORECASTED LIFTED INDEX....VALID 18Z....      7           1
FORECASTED LIFTED INDEX....VALID 00Z....      4           4

AFTERNOON WINDS ALOFT FORECAST
MSL (FT) WIND/TEMP
9000  2611/+15
10000 2410/+12
12000 2409/+06
14000 2412/+01
16000 2416/-03
18000 2527/-08
24000 2638/-20
30000 2655/-36
34000 2667/-45
39000 2677/-51

SLIDE MOUNTAIN DATA:
     DATE       TIME     TEMP  DEWPT   RH         WIND (MPH)
                        (F)   (F)           | DIR  SPEED GUST
2017-06-27    05:50      46    25     31    | 190   30   38
2017-06-27    05:30      46    25     30    | 189   29   33
2017-06-27    05:20      46    24     29    | 189   29   33
2017-06-27    05:00      46    22     26    | 186   29   37

RENO TAF FORECAST:
KRNO 271120Z 2712/2812 VRB03KT P6SM SKC
     FM272200 28015G25KT P6SM SKC
     FM280400 31011KT P6SM SKC
     FM280700 VRB03KT P6SM SKC

CARSON CITY TAF FORECAST:
KCXP 271120Z 2712/2812 VRB04KT P6SM SKC
     FM272100 26009G17KT P6SM SKC
     FM280400 VRB03KT P6SM SKC

OUTLOOK FOR THE RENO-CARSON CITY-MINDEN AREA:
.WEDNESDAY...SUNNY. HIGHS 88 TO 93. LIGHT WINDS BECOMING WEST
AROUND 10 MPH IN THE AFTERNOON.

SUNRISE AND SUNSET
JUNE 27 2017..........SUNRISE   534 AM PDT   SUNSET   830 PM PDT
JUNE 28 2017..........SUNRISE   534 AM PDT   SUNSET   830 PM PDT



USA.gov is the U.S. government's official web portal to all federal, state and local government web resources and services.